createdAt,value
2023-02-04T00:00:22.001Z,7.10
2023-02-04T00:03:09.793Z,8.80
2023-02-04T00:05:37.727Z,9.20
2023-02-04T00:08:05.867Z,8.70
2023-02-04T00:10:33.919Z,8.20
2023-02-04T00:13:01.997Z,9.00
2023-02-04T00:15:30.017Z,10.10
2023-02-04T00:17:57.906Z,8.50
2023-02-04T00:20:25.881Z,8.70
2023-02-04T00:22:53.703Z,8.00
2023-02-04T00:25:21.447Z,9.10
2023-02-04T00:27:49.253Z,7.70
2023-02-04T00:30:17.294Z,7.10
2023-02-04T00:32:45.109Z,7.20
2023-02-04T00:35:13.231Z,6.30
2023-02-04T00:37:41.006Z,5.30
2023-02-04T00:40:09.223Z,6.20
2023-02-04T00:42:37.087Z,5.90
2023-02-04T00:45:05.105Z,5.40
2023-02-04T00:47:32.902Z,5.40
2023-02-04T00:50:00.695Z,5.00
2023-02-04T00:52:28.495Z,4.90
2023-02-04T00:54:56.393Z,5.00
2023-02-04T00:57:24.236Z,4.80
2023-02-04T00:59:52.053Z,4.60
2023-02-04T01:02:19.868Z,4.00
2023-02-04T01:04:47.594Z,4.90
2023-02-04T01:07:15.382Z,4.90
2023-02-04T01:09:43.323Z,3.60
2023-02-04T01:12:11.106Z,3.00
2023-02-04T01:14:38.872Z,3.50
2023-02-04T01:17:06.691Z,3.20
2023-02-04T01:19:34.555Z,2.70
2023-02-04T01:22:02.331Z,2.60
2023-02-04T01:24:30.195Z,2.50
2023-02-04T01:26:58.118Z,2.20
2023-02-04T01:29:25.895Z,2.40
2023-02-04T01:31:53.646Z,2.10
2023-02-04T01:34:21.458Z,2.40
2023-02-04T01:36:49.228Z,2.40
2023-02-04T01:39:17.264Z,2.50
2023-02-04T01:41:45.202Z,2.00
2023-02-04T01:44:13.160Z,2.30
2023-02-04T01:46:41.024Z,4.50
2023-02-04T01:49:10.118Z,2.70
2023-02-04T01:51:37.934Z,3.40
2023-02-04T01:54:06.906Z,2.70
2023-02-04T01:56:34.666Z,2.60
2023-02-04T01:59:02.503Z,2.50
2023-02-04T02:01:49.956Z,2.90
2023-02-04T02:04:19.254Z,2.30
2023-02-04T02:06:53.619Z,2.00
2023-02-04T02:09:21.583Z,2.70
2023-02-04T02:11:49.377Z,2.50
2023-02-04T02:14:17.269Z,2.40
2023-02-04T02:16:45.222Z,2.60
2023-02-04T02:19:15.601Z,2.30
2023-02-04T02:21:50.194Z,2.40
2023-02-04T02:24:32.141Z,2.60
2023-02-04T02:27:01.415Z,2.60
2023-02-04T02:29:29.498Z,2.90
2023-02-04T02:31:58.117Z,2.20
2023-02-04T02:34:26.876Z,3.00
2023-02-04T02:36:54.949Z,2.40
2023-02-04T02:39:22.861Z,2.80
2023-02-04T02:41:50.895Z,3.10
2023-02-04T02:44:19.197Z,3.40
2023-02-04T02:46:47.113Z,3.90
2023-02-04T02:49:16.715Z,3.80
2023-02-04T02:51:44.837Z,3.90
2023-02-04T02:54:38.859Z,4.30
2023-02-04T02:57:23.118Z,4.00
2023-02-04T02:59:51.019Z,4.80
2023-02-04T03:02:24.673Z,5.50
2023-02-04T03:04:55.558Z,4.50
2023-02-04T03:07:23.500Z,4.40
2023-02-04T03:09:53.623Z,4.50
2023-02-04T03:12:21.464Z,4.50
2023-02-04T03:14:49.273Z,4.20
2023-02-04T03:17:17.038Z,4.10
2023-02-04T03:19:44.848Z,4.30
2023-02-04T03:22:12.663Z,3.80
2023-02-04T03:24:40.926Z,3.80
2023-02-04T03:27:08.724Z,4.20
2023-02-04T03:29:42.558Z,3.30
2023-02-04T03:32:10.359Z,4.30
2023-02-04T03:34:38.132Z,3.40
2023-02-04T03:37:05.985Z,3.70
2023-02-04T03:39:33.823Z,3.40
2023-02-04T03:42:01.609Z,3.40
2023-02-04T03:44:29.364Z,3.70
2023-02-04T03:46:57.159Z,3.30
2023-02-04T03:49:24.915Z,3.20
2023-02-04T03:51:52.769Z,3.80
2023-02-04T03:54:20.593Z,4.10
2023-02-04T03:56:48.297Z,3.40
2023-02-04T03:59:16.057Z,3.40
2023-02-04T04:01:43.889Z,3.90
2023-02-04T04:04:11.758Z,3.40
2023-02-04T04:06:39.747Z,4.40
2023-02-04T04:09:07.531Z,3.40
2023-02-04T04:11:35.440Z,3.60
2023-02-04T04:14:03.435Z,3.50
2023-02-04T04:16:31.230Z,3.20
2023-02-04T04:18:59.091Z,3.20
2023-02-04T04:21:26.808Z,3.40
2023-02-04T04:23:54.536Z,3.40
2023-02-04T04:26:22.305Z,2.80
2023-02-04T04:28:50.119Z,3.00
2023-02-04T04:31:18.135Z,3.00
2023-02-04T04:33:45.991Z,2.60
2023-02-04T04:36:14.955Z,2.60
2023-02-04T04:38:42.835Z,3.90
2023-02-04T04:41:10.579Z,3.20
2023-02-04T04:43:38.335Z,3.00
2023-02-04T04:46:06.114Z,3.70
2023-02-04T04:48:33.923Z,2.90
2023-02-04T04:51:01.738Z,3.20
2023-02-04T04:53:29.501Z,2.50
2023-02-04T04:55:57.232Z,2.60
2023-02-04T04:58:25.014Z,2.80
2023-02-04T05:00:52.722Z,3.00
2023-02-04T05:03:20.457Z,3.40
2023-02-04T05:05:48.242Z,3.50
2023-02-04T05:08:17.079Z,3.20
2023-02-04T05:10:44.799Z,3.20
2023-02-04T05:13:13.002Z,3.20
2023-02-04T05:15:40.774Z,3.30
2023-02-04T05:18:08.555Z,3.40
2023-02-04T05:20:36.395Z,3.30
2023-02-04T05:23:05.727Z,2.50
2023-02-04T05:25:33.751Z,2.90
2023-02-04T05:28:01.557Z,2.60
2023-02-04T05:30:29.655Z,2.70
2023-02-04T05:32:57.661Z,2.60
2023-02-04T05:35:26.038Z,2.80
2023-02-04T05:37:53.777Z,2.30
2023-02-04T05:40:21.565Z,3.10
2023-02-04T05:42:52.951Z,2.60
2023-02-04T05:45:21.072Z,2.70
2023-02-04T05:47:48.822Z,3.10
2023-02-04T05:50:16.688Z,2.80
2023-02-04T05:52:44.579Z,3.20
2023-02-04T05:55:12.794Z,2.60
2023-02-04T05:57:40.635Z,2.60
2023-02-04T06:00:08.911Z,2.80
2023-02-04T06:02:36.683Z,2.80
2023-02-04T06:05:04.847Z,3.40
2023-02-04T06:07:32.619Z,2.40
2023-02-04T06:10:00.628Z,2.20
2023-02-04T06:12:28.525Z,2.30
2023-02-04T06:17:09.567Z,2.70
2023-02-04T06:19:37.414Z,2.30
2023-02-04T06:22:05.346Z,2.70
2023-02-04T06:24:33.152Z,2.40
2023-02-04T06:27:00.993Z,2.90
2023-02-04T06:29:28.781Z,2.40
2023-02-04T06:31:56.765Z,2.80
2023-02-04T06:34:25.081Z,2.60
2023-02-04T06:36:52.878Z,1.90
2023-02-04T06:39:21.303Z,2.10
2023-02-04T06:41:49.658Z,2.00
2023-02-04T06:44:17.482Z,2.10
2023-02-04T06:46:45.375Z,1.90
2023-02-04T06:49:13.338Z,2.30
2023-02-04T06:51:41.219Z,2.00
2023-02-04T06:54:09.019Z,1.80
2023-02-04T06:56:36.873Z,1.60
2023-02-04T06:59:04.782Z,1.80
2023-02-04T07:01:32.704Z,1.50
2023-02-04T07:04:00.557Z,1.50
2023-02-04T07:06:28.568Z,1.80
2023-02-04T07:08:56.466Z,1.70
2023-02-04T07:11:24.414Z,1.60
2023-02-04T07:13:52.259Z,1.80
2023-02-04T07:16:20.069Z,2.00
2023-02-04T07:18:48.059Z,2.10
2023-02-04T07:21:15.875Z,1.90
2023-02-04T07:23:43.608Z,2.60
2023-02-04T07:26:11.428Z,2.00
2023-02-04T07:28:41.194Z,2.20
2023-02-04T07:31:09.184Z,2.00
2023-02-04T07:33:37.075Z,2.20
2023-02-04T07:36:05.047Z,1.70
2023-02-04T07:38:33.138Z,1.60
2023-02-04T07:41:01.004Z,1.70
2023-02-04T07:43:29.010Z,1.40
2023-02-04T07:45:57.033Z,1.90
2023-02-04T07:48:24.920Z,1.50
2023-02-04T07:50:52.856Z,1.40
2023-02-04T07:53:20.820Z,1.80
2023-02-04T07:55:48.824Z,1.90
2023-02-04T07:58:16.754Z,3.10
2023-02-04T08:00:44.634Z,3.60
2023-02-04T08:03:12.730Z,3.70
2023-02-04T08:05:40.759Z,2.00
2023-02-04T08:08:08.547Z,2.10
2023-02-04T08:10:36.417Z,3.10
2023-02-04T08:13:04.209Z,2.40
2023-02-04T08:15:32.281Z,2.00
2023-02-04T08:18:00.120Z,2.00
2023-02-04T08:20:28.201Z,2.50
2023-02-04T08:22:56.276Z,3.80
2023-02-04T08:25:24.024Z,3.40
2023-02-04T08:27:52.028Z,2.60
2023-02-04T08:30:20.067Z,2.80
2023-02-04T08:32:48.254Z,3.90
2023-02-04T08:35:16.201Z,3.40
2023-02-04T08:37:44.161Z,4.70
2023-02-04T08:40:12.195Z,2.40
2023-02-04T08:42:40.068Z,2.80
2023-02-04T08:45:08.163Z,1.80
2023-02-04T08:47:36.034Z,1.60
2023-02-04T08:50:03.930Z,2.50
2023-02-04T08:52:32.033Z,1.90
2023-02-04T08:54:59.869Z,1.00
2023-02-04T08:57:27.732Z,1.40
2023-02-04T08:59:55.611Z,1.30
2023-02-04T09:02:23.537Z,1.20
2023-02-04T09:04:51.780Z,1.60
2023-02-04T09:07:19.733Z,2.80
2023-02-04T09:09:48.599Z,2.30
2023-02-04T09:12:16.544Z,1.90
2023-02-04T09:14:44.477Z,1.70
2023-02-04T09:17:12.447Z,2.00
2023-02-04T09:19:40.529Z,1.90
2023-02-04T09:28:51.954Z,1.50
2023-02-04T09:31:18.563Z,1.60
2023-02-04T09:33:45.055Z,1.70
2023-02-04T09:36:11.482Z,1.60
2023-02-04T09:38:37.985Z,1.80
2023-02-04T09:41:07.741Z,1.60
2023-02-04T09:43:36.079Z,1.50
2023-02-04T09:46:02.957Z,2.00
2023-02-04T09:48:33.407Z,2.20
2023-02-04T09:51:04.865Z,3.30
2023-02-04T09:53:42.429Z,3.00
2023-02-04T09:56:13.848Z,1.50
2023-02-04T09:58:41.082Z,2.30
2023-02-04T10:01:18.994Z,3.40
2023-02-04T10:03:50.748Z,2.20
2023-02-04T10:06:18.498Z,1.10
2023-02-04T10:08:46.969Z,1.50
2023-02-04T10:11:14.035Z,1.70
2023-02-04T10:13:52.575Z,1.70
2023-02-04T10:16:29.237Z,1.80
2023-02-04T10:19:03.864Z,1.70
2023-02-04T10:21:36.115Z,1.20
2023-02-04T10:24:04.681Z,1.40
2023-02-04T10:26:31.650Z,1.40
2023-02-04T10:29:02.555Z,1.80
2023-02-04T10:31:37.111Z,1.20
2023-02-04T10:34:25.229Z,1.40
2023-02-04T10:36:57.780Z,1.60
2023-02-04T10:39:27.032Z,1.50
2023-02-04T10:41:59.200Z,1.50
2023-02-04T10:44:25.688Z,1.90
2023-02-04T10:47:21.753Z,1.30
2023-02-04T10:50:17.318Z,1.90
2023-02-04T10:52:45.720Z,1.30
2023-02-04T10:55:17.469Z,1.10
2023-02-04T10:57:45.458Z,1.40
2023-02-04T11:00:15.399Z,2.10
2023-02-04T11:02:50.931Z,2.60
2023-02-04T11:05:19.392Z,2.70
2023-02-04T11:07:46.792Z,2.30
2023-02-04T11:10:21.007Z,1.20
2023-02-04T11:13:00.397Z,2.10
2023-02-04T11:15:37.455Z,1.60
2023-02-04T11:18:24.060Z,1.50
2023-02-04T11:20:52.058Z,2.90
2023-02-04T11:23:33.674Z,2.10
2023-02-04T11:26:03.345Z,2.10
2023-02-04T11:28:38.504Z,1.30
2023-02-04T11:31:12.435Z,1.40
2023-02-04T11:33:40.918Z,1.60
2023-02-04T11:36:10.990Z,1.30
2023-02-04T11:38:38.265Z,1.40
2023-02-04T11:41:05.334Z,1.60
2023-02-04T11:43:35.413Z,1.50
2023-02-04T11:46:03.468Z,1.70
2023-02-04T11:48:34.527Z,1.60
2023-02-04T11:51:02.119Z,2.60
2023-02-04T11:53:31.165Z,2.00
2023-02-04T11:55:58.629Z,1.70
2023-02-04T11:58:32.958Z,1.30
2023-02-04T12:01:02.898Z,1.30
2023-02-04T12:04:25.697Z,2.70
2023-02-04T12:07:03.091Z,3.10
2023-02-04T12:09:35.356Z,1.30
2023-02-04T12:12:10.057Z,2.20
2023-02-04T12:14:58.318Z,3.80
2023-02-04T12:17:26.893Z,1.80
2023-02-04T12:20:04.226Z,1.20
2023-02-04T12:22:39.523Z,1.90
2023-02-04T12:25:22.232Z,2.60
2023-02-04T12:28:03.924Z,5.30
2023-02-04T12:30:40.825Z,2.60
2023-02-04T12:33:14.928Z,1.50
2023-02-04T12:35:42.175Z,1.50
2023-02-04T12:38:12.882Z,1.10
2023-02-04T12:41:01.731Z,1.30
2023-02-04T12:43:36.592Z,1.30
2023-02-04T12:46:03.632Z,2.60
2023-02-04T12:48:30.745Z,1.70
2023-02-04T12:51:00.819Z,1.80
2023-02-04T12:53:28.083Z,1.90
2023-02-04T12:55:56.532Z,4.40
2023-02-04T12:58:24.493Z,1.70
2023-02-04T13:00:51.093Z,4.60
2023-02-04T13:03:18.222Z,9.10
2023-02-04T13:05:44.733Z,2.40
2023-02-04T13:08:11.250Z,11.80
2023-02-04T13:10:37.816Z,8.70
2023-02-04T13:13:04.859Z,1.40
2023-02-04T13:15:31.843Z,1.50
2023-02-04T13:17:58.527Z,1.40
2023-02-04T13:20:24.992Z,3.80
2023-02-04T13:22:51.516Z,6.20
2023-02-04T13:25:18.099Z,3.10
2023-02-04T13:27:44.760Z,1.60
2023-02-04T13:30:13.122Z,2.50
2023-02-04T13:32:40.407Z,1.90
2023-02-04T13:35:07.108Z,1.50
2023-02-04T13:37:33.728Z,2.10
2023-02-04T13:40:00.321Z,4.30
2023-02-04T13:42:26.914Z,2.50
2023-02-04T13:44:54.606Z,2.80
2023-02-04T13:47:21.123Z,2.90
2023-02-04T13:49:47.854Z,3.10
2023-02-04T13:52:14.437Z,6.00
2023-02-04T13:54:40.944Z,9.80
2023-02-04T13:57:07.506Z,9.80
2023-02-04T13:59:33.934Z,10.00
2023-02-04T14:02:00.505Z,5.70
2023-02-04T14:04:27.270Z,4.30
2023-02-04T14:06:55.793Z,2.70
2023-02-04T14:09:22.535Z,1.90
2023-02-04T14:11:48.984Z,3.50
2023-02-04T14:14:15.454Z,2.30
2023-02-04T14:16:42.095Z,2.70
2023-02-04T14:19:08.858Z,2.40
2023-02-04T14:21:35.343Z,2.80
2023-02-04T14:27:06.731Z,2.50
2023-02-04T14:29:33.919Z,2.20
2023-02-04T14:32:01.177Z,2.00
2023-02-04T14:34:27.923Z,2.30
2023-02-04T14:36:55.814Z,2.20
2023-02-04T14:39:22.499Z,2.50
2023-02-04T14:41:49.051Z,3.80
2023-02-04T14:44:20.151Z,3.90
2023-02-04T14:46:48.216Z,3.30
2023-02-04T14:49:17.875Z,3.40
2023-02-04T14:51:44.558Z,3.90
2023-02-04T14:54:11.205Z,3.90
2023-02-04T14:56:38.423Z,5.70
2023-02-04T14:59:05.346Z,4.90
2023-02-04T15:01:32.021Z,3.40
2023-02-04T15:03:58.834Z,2.60
2023-02-04T15:06:25.450Z,2.50
2023-02-04T15:08:51.955Z,2.00
2023-02-04T15:11:18.636Z,2.30
2023-02-04T15:13:46.399Z,4.00
2023-02-04T15:16:15.098Z,1.60
2023-02-04T15:18:42.057Z,2.00
2023-02-04T15:21:08.902Z,1.70
2023-02-04T15:23:35.405Z,1.70
2023-02-04T15:26:02.265Z,1.80
2023-02-04T15:28:30.360Z,1.70
2023-02-04T15:30:57.384Z,1.70
2023-02-04T15:33:24.277Z,1.60
2023-02-04T15:35:51.001Z,1.70
2023-02-04T15:38:17.705Z,1.60
2023-02-04T15:40:44.268Z,1.50
2023-02-04T15:43:10.808Z,1.60
2023-02-04T15:45:40.767Z,1.70
2023-02-04T15:48:07.895Z,2.10
2023-02-04T15:50:34.753Z,1.90
2023-02-04T15:53:01.829Z,5.30
2023-02-04T15:55:28.714Z,3.00
2023-02-04T15:57:55.433Z,2.70
2023-02-04T16:00:22.315Z,8.50
2023-02-04T16:02:48.921Z,2.30
2023-02-04T16:05:15.691Z,1.80
2023-02-04T16:07:45.126Z,1.60
2023-02-04T16:10:11.536Z,1.90
2023-02-04T16:12:38.180Z,2.10
2023-02-04T16:15:04.882Z,1.70
2023-02-04T16:17:31.457Z,1.80
2023-02-04T16:19:58.304Z,1.60
2023-02-04T16:22:24.994Z,2.60
2023-02-04T16:24:52.278Z,2.10
2023-02-04T16:27:18.917Z,1.80
2023-02-04T16:29:45.887Z,2.40
2023-02-04T16:32:12.992Z,1.70
2023-02-04T16:34:39.917Z,1.60
2023-02-04T16:37:06.976Z,2.20
2023-02-04T16:39:33.556Z,1.90
2023-02-04T16:42:00.150Z,1.90
2023-02-04T16:44:26.720Z,2.10
2023-02-04T16:46:54.602Z,2.10
2023-02-04T16:49:21.126Z,1.80
2023-02-04T16:51:47.690Z,2.00
2023-02-04T16:54:14.300Z,3.30
2023-02-04T16:56:41.024Z,1.90
2023-02-04T16:59:07.595Z,1.90
2023-02-04T17:01:34.222Z,3.90
2023-02-04T17:04:00.977Z,1.80
2023-02-04T17:06:28.568Z,3.80
2023-02-04T17:08:55.316Z,2.00
2023-02-04T17:11:28.403Z,1.90
2023-02-04T17:13:59.294Z,1.70
2023-02-04T17:16:26.160Z,1.70
2023-02-04T17:18:54.446Z,1.90
2023-02-04T17:21:25.610Z,2.70
2023-02-04T17:23:54.710Z,2.70
2023-02-04T17:26:27.450Z,2.30
2023-02-04T17:28:58.950Z,1.70
2023-02-04T17:31:29.407Z,2.40
2023-02-04T17:33:56.148Z,4.10
2023-02-04T17:36:23.969Z,6.00
2023-02-04T17:38:51.183Z,2.70
2023-02-04T17:41:17.876Z,2.00
2023-02-04T17:43:44.458Z,2.20
2023-02-04T17:46:11.052Z,7.50
2023-02-04T17:48:37.691Z,4.60
2023-02-04T17:51:05.927Z,4.00
2023-02-04T17:53:35.250Z,2.20
2023-02-04T17:56:05.536Z,3.00
2023-02-04T17:58:32.880Z,3.80
2023-02-04T18:00:59.579Z,2.50
2023-02-04T18:03:27.262Z,2.30
2023-02-04T18:05:55.234Z,2.40
2023-02-04T18:08:31.744Z,2.40
2023-02-04T18:10:58.466Z,2.60
2023-02-04T18:13:29.477Z,2.50
2023-02-04T18:15:57.447Z,2.20
2023-02-04T18:18:25.562Z,2.40
2023-02-04T18:21:12.389Z,2.50
2023-02-04T18:23:39.091Z,2.30
2023-02-04T18:26:16.775Z,2.10
2023-02-04T18:28:44.714Z,2.50
2023-02-04T18:31:29.241Z,2.30
2023-02-04T18:33:56.527Z,2.30
2023-02-04T18:36:23.464Z,2.00
2023-02-04T18:38:50.024Z,2.40
2023-02-04T18:41:22.627Z,3.70
2023-02-04T18:43:50.613Z,2.90
2023-02-04T18:46:22.168Z,1.80
2023-02-04T18:48:54.802Z,2.30
2023-02-04T18:51:41.674Z,2.70
2023-02-04T18:54:23.029Z,2.30
2023-02-04T18:56:49.619Z,2.30
2023-02-04T18:59:17.100Z,2.70
2023-02-04T19:01:45.139Z,2.30
2023-02-04T19:04:15.144Z,2.00
2023-02-04T19:06:42.870Z,2.40
2023-02-04T19:09:09.446Z,2.50
2023-02-04T19:11:37.244Z,2.50
2023-02-04T19:14:17.059Z,3.10
2023-02-04T19:16:43.956Z,3.00
2023-02-04T19:19:29.458Z,3.20
2023-02-04T19:21:56.034Z,3.30
2023-02-04T19:24:23.793Z,4.60
2023-02-04T19:27:01.203Z,4.90
2023-02-04T19:29:35.915Z,5.90
2023-02-04T19:32:21.216Z,5.70
2023-02-04T19:34:47.671Z,4.90
2023-02-04T19:37:22.336Z,4.10
2023-02-04T19:39:49.732Z,4.70
2023-02-04T19:42:28.677Z,5.90
2023-02-04T19:44:57.402Z,5.40
2023-02-04T19:47:25.209Z,6.30
2023-02-04T19:49:56.825Z,5.40
2023-02-04T19:52:23.241Z,4.90
2023-02-04T19:54:49.678Z,5.70
2023-02-04T19:57:23.586Z,5.00
2023-02-04T19:59:52.332Z,4.60
2023-02-04T20:02:18.888Z,5.00
2023-02-04T20:04:47.452Z,5.30
2023-02-04T20:07:17.961Z,6.40
2023-02-04T20:09:44.469Z,4.70
2023-02-04T20:12:17.541Z,5.30
2023-02-04T20:14:47.093Z,4.50
2023-02-04T20:17:21.617Z,4.20
2023-02-04T20:19:48.363Z,4.40
2023-02-04T20:22:17.993Z,3.60
2023-02-04T20:24:45.876Z,4.00
2023-02-04T20:27:18.516Z,3.40
2023-02-04T20:29:45.641Z,2.70
2023-02-04T20:32:15.423Z,3.80
2023-02-04T20:34:41.812Z,4.00
2023-02-04T20:37:10.276Z,4.40
2023-02-04T20:39:38.166Z,4.90
2023-02-04T20:42:20.197Z,4.80
2023-02-04T20:44:47.591Z,4.20
2023-02-04T20:47:18.608Z,3.50
2023-02-04T20:49:52.350Z,4.20
2023-02-04T20:52:37.466Z,4.00
2023-02-04T20:55:20.121Z,4.30
2023-02-04T20:57:47.554Z,3.90
2023-02-04T21:00:14.858Z,4.20
2023-02-04T21:02:41.287Z,3.10
2023-02-04T21:05:19.867Z,3.60
2023-02-04T21:07:46.287Z,3.30
2023-02-04T21:10:12.716Z,4.90
2023-02-04T21:12:42.265Z,4.90
2023-02-04T21:15:08.765Z,3.70
2023-02-04T21:17:35.208Z,4.60
2023-02-04T21:20:01.638Z,3.30
2023-02-04T21:22:28.193Z,3.70
2023-02-04T21:24:54.519Z,3.80
2023-02-04T21:27:22.502Z,3.90
2023-02-04T21:29:49.090Z,3.70
2023-02-04T21:32:15.521Z,3.30
2023-02-04T21:34:41.955Z,3.70
2023-02-04T21:37:08.389Z,2.80
2023-02-04T21:39:34.830Z,3.40
2023-02-04T21:42:19.020Z,3.70
2023-02-04T21:44:45.574Z,4.10
2023-02-04T21:47:12.892Z,3.40
2023-02-04T21:49:42.680Z,2.80
2023-02-04T21:52:09.359Z,2.40
2023-02-04T21:54:35.757Z,2.80
2023-02-04T21:57:03.813Z,3.00
2023-02-04T21:59:30.341Z,3.30
2023-02-04T22:01:56.788Z,2.90
2023-02-04T22:04:23.275Z,2.90
2023-02-04T22:06:49.695Z,2.80
2023-02-04T22:09:17.494Z,2.70
2023-02-04T22:11:47.592Z,2.90
2023-02-04T22:14:32.572Z,3.60
2023-02-04T22:16:58.932Z,2.90
2023-02-04T22:19:25.333Z,2.80
2023-02-04T22:21:51.823Z,5.40
2023-02-04T22:24:18.303Z,3.70
2023-02-04T22:26:44.649Z,3.90
2023-02-04T22:29:11.006Z,2.90
2023-02-04T22:31:37.432Z,3.20
2023-02-04T22:34:04.841Z,3.10
2023-02-04T22:36:31.293Z,2.60
2023-02-04T22:38:57.726Z,2.70
2023-02-04T22:41:24.203Z,3.80
2023-02-04T22:43:50.662Z,3.70
2023-02-04T22:46:17.123Z,3.00
2023-02-04T22:48:43.554Z,2.90
2023-02-04T22:51:10.010Z,3.20
2023-02-04T22:53:36.403Z,3.20
2023-02-04T22:56:02.973Z,2.90
2023-02-04T22:58:30.850Z,3.00
2023-02-04T23:00:57.327Z,2.70
2023-02-04T23:03:23.785Z,3.20
2023-02-04T23:05:50.260Z,3.80
2023-02-04T23:08:17.275Z,3.90
2023-02-04T23:10:44.917Z,4.10
2023-02-04T23:13:11.745Z,4.20
2023-02-04T23:15:38.367Z,3.70
2023-02-04T23:18:04.768Z,3.80
2023-02-04T23:20:32.046Z,3.40
2023-02-04T23:22:58.474Z,3.80
2023-02-04T23:25:24.899Z,3.50
2023-02-04T23:27:51.353Z,4.00
2023-02-04T23:30:18.065Z,4.00
2023-02-04T23:32:45.261Z,3.00
2023-02-04T23:35:11.670Z,3.50
2023-02-04T23:37:38.019Z,3.30
2023-02-04T23:40:04.823Z,3.30
2023-02-04T23:42:31.675Z,4.00
2023-02-04T23:44:58.036Z,3.70
2023-02-04T23:47:24.594Z,4.00
2023-02-04T23:49:51.030Z,3.20
2023-02-04T23:52:17.361Z,3.20
2023-02-04T23:54:43.750Z,3.50
2023-02-04T23:57:10.591Z,3.30
2023-02-04T23:59:41.464Z,4.00
